Time;durP1;ratioP1;P1;durP2;ratioP2;P2;SDS_P1;SDS_P2;PMS_P1;PMS_P2;Temp;Humidity;BMP_temperature;BMP_pressure;BME280_temperature;BME280_humidity;BME280_pressure;Samples;Min_cycle;Max_cycle;Signal;HPM_P1;HPM_P2
2022/11/01 00:00:21;;;;;;;19.92;12.02;;;11.40;99.90;;;;;;4984497;28;20031;-71
2022/11/01 06:02:41;;;;;;;3.67;1.48;;;16.20;99.90;;;;;;5459072;23;20057;-72
2022/11/01 06:05:07;;;;;;;5.55;1.50;;;16.10;99.90;;;;;;5042202;28;20057;-73
2022/11/01 06:07:35;;;;;;;3.92;1.63;;;16.00;99.90;;;;;;5043119;28;20223;-72
2022/11/01 06:10:02;;;;;;;4.13;1.33;;;15.90;99.90;;;;;;5042593;28;20056;-73
2022/11/01 06:12:28;;;;;;;4.50;1.10;;;15.80;99.90;;;;;;5042901;28;20025;-72
2022/11/01 06:14:53;;;;;;;2.72;1.13;;;15.70;99.90;;;;;;5043906;28;20068;-72
2022/11/01 06:17:19;;;;;;;3.20;1.63;;;15.70;99.90;;;;;;5042514;28;20307;-73
2022/11/01 06:19:45;;;;;;;5.30;2.05;;;15.60;99.90;;;;;;5043106;28;20026;-73
2022/11/01 06:22:11;;;;;;;10.43;3.83;;;15.50;99.90;;;;;;5042155;28;20044;-73
2022/11/01 06:24:36;;;;;;;6.85;3.65;;;15.40;99.90;;;;;;5043282;28;20052;-72
2022/11/01 06:27:02;;;;;;;9.65;4.57;;;15.10;99.90;;;;;;5042301;28;20329;-73
2022/11/01 06:29:28;;;;;;;9.80;4.70;;;14.90;99.90;;;;;;5042669;28;20195;-72
2022/11/01 06:31:53;;;;;;;10.40;4.68;;;14.70;99.90;;;;;;5042964;28;20037;-72
2022/11/01 06:34:19;;;;;;;12.48;5.45;;;14.60;99.90;;;;;;5042153;28;20021;-72
2022/11/01 06:36:45;;;;;;;11.93;5.97;;;14.40;99.90;;;;;;5042794;28;20030;-73
2022/11/01 06:39:10;;;;;;;11.43;5.95;;;14.30;99.90;;;;;;5042240;28;20048;-72
2022/11/01 06:41:36;;;;;;;12.38;6.07;;;14.20;99.90;;;;;;5042974;28;20025;-72
2022/11/01 06:44:02;;;;;;;13.05;7.53;;;14.20;99.90;;;;;;5042467;28;20033;-73
2022/11/01 06:46:28;;;;;;;11.52;6.63;;;14.10;99.90;;;;;;5042364;28;20092;-72
2022/11/01 06:48:53;;;;;;;9.50;5.25;;;13.90;99.90;;;;;;5042734;28;20037;-73
2022/11/01 06:51:19;;;;;;;9.88;5.68;;;13.90;99.90;;;;;;5042255;28;20029;-72
2022/11/01 06:53:45;;;;;;;7.47;4.60;;;13.90;99.90;;;;;;5042144;28;20065;-72
2022/11/01 06:56:10;;;;;;;11.55;4.88;;;13.90;99.90;;;;;;5041925;28;20060;-72
2022/11/01 06:58:36;;;;;;;7.47;3.85;;;13.90;99.90;;;;;;5041747;28;20037;-71
2022/11/01 07:01:02;;;;;;;11.40;4.88;;;14.00;99.90;;;;;;5024497;28;20025;-71
2022/11/01 07:03:28;;;;;;;6.55;3.70;;;14.00;99.90;;;;;;5037449;28;20364;-72
2022/11/01 07:05:53;;;;;;;7.60;3.70;;;14.10;99.90;;;;;;5022325;28;20029;-73
2022/11/01 07:08:19;;;;;;;8.23;4.30;;;14.10;99.90;;;;;;5021575;28;20133;-72
2022/11/01 07:10:45;;;;;;;10.65;4.47;;;14.20;99.90;;;;;;5027878;28;20046;-74
2022/11/01 07:13:12;;;;;;;6.82;3.97;;;14.30;99.90;;;;;;5022182;28;20034;-74
2022/11/01 07:15:38;;;;;;;8.88;4.05;;;14.30;99.90;;;;;;5022519;28;20029;-74
2022/11/01 07:18:07;;;;;;;7.18;4.13;;;14.30;99.90;;;;;;5022192;28;20030;-74
2022/11/01 07:20:42;;;;;;;7.25;3.63;;;14.40;99.90;;;;;;5022463;28;20334;-72
2022/11/01 07:23:14;;;;;;;8.85;3.70;;;14.40;99.90;;;;;;5021891;28;20093;-73
2022/11/01 07:25:40;;;;;;;8.93;4.20;;;14.40;99.90;;;;;;5022202;28;20326;-72
2022/11/01 07:28:06;;;;;;;7.82;3.35;;;14.40;99.90;;;;;;5021865;28;20026;-72
2022/11/01 07:30:32;;;;;;;7.82;3.45;;;14.50;99.90;;;;;;5022322;28;20163;-72
2022/11/01 07:33:00;;;;;;;8.40;4.43;;;14.60;99.90;;;;;;5022005;28;20192;-73
2022/11/01 07:35:26;;;;;;;6.57;3.83;;;14.60;99.90;;;;;;5021676;28;20045;-72
2022/11/01 07:37:52;;;;;;;7.65;3.50;;;14.70;99.90;;;;;;5037888;28;20474;-72
2022/11/01 07:40:18;;;;;;;7.82;3.03;;;14.80;99.90;;;;;;5021916;28;20064;-71
2022/11/01 07:42:44;;;;;;;6.78;3.47;;;14.90;99.90;;;;;;5021880;28;20030;-72
2022/11/01 07:45:12;;;;;;;6.30;3.35;;;14.90;99.90;;;;;;5021601;28;20025;-73
2022/11/01 07:47:38;;;;;;;9.25;3.58;;;15.00;99.90;;;;;;5020929;28;20029;-72
2022/11/01 07:50:05;;;;;;;10.73;3.60;;;15.10;99.90;;;;;;5022786;28;20049;-72
2022/11/01 07:52:31;;;;;;;6.72;3.22;;;15.10;99.90;;;;;;5016012;28;20049;-72
2022/11/01 07:54:56;;;;;;;5.15;2.80;;;15.20;99.90;;;;;;5020641;28;20033;-74
2022/11/01 07:57:22;;;;;;;8.07;3.30;;;15.20;99.90;;;;;;5026814;28;20047;-72
2022/11/01 07:59:48;;;;;;;7.43;3.53;;;15.30;99.90;;;;;;5021730;28;20244;-74
2022/11/01 08:02:13;;;;;;;8.25;3.67;;;15.40;99.90;;;;;;5021105;28;20331;-73
2022/11/01 08:04:39;;;;;;;8.90;3.88;;;15.50;99.90;;;;;;5015394;28;20129;-73
2022/11/01 08:07:05;;;;;;;7.05;3.10;;;15.50;99.90;;;;;;5000929;28;20058;-73
2022/11/01 08:09:30;;;;;;;4.43;2.10;;;15.50;99.90;;;;;;5000946;28;20118;-73
2022/11/01 08:11:56;;;;;;;4.28;2.30;;;15.60;99.90;;;;;;5004303;28;20118;-73
2022/11/01 08:14:22;;;;;;;6.50;2.28;;;15.80;99.90;;;;;;5004317;28;20030;-72
2022/11/01 08:16:54;;;;;;;4.63;1.73;;;15.90;99.90;;;;;;5005063;28;20049;-73
2022/11/01 08:19:21;;;;;;;9.68;4.75;;;16.10;99.90;;;;;;5004541;28;20085;-73
2022/11/01 08:21:49;;;;;;;14.95;7.50;;;16.20;99.90;;;;;;5004916;28;20049;-73
2022/11/01 08:24:15;;;;;;;6.93;3.95;;;16.30;99.90;;;;;;5004554;28;20046;-74
2022/11/01 08:26:41;;;;;;;4.57;1.58;;;16.40;99.90;;;;;;5004687;28;20076;-73
2022/11/01 08:29:07;;;;;;;6.30;3.17;;;16.50;99.90;;;;;;5004175;28;20287;-74
2022/11/01 08:31:33;;;;;;;17.75;12.77;;;16.60;99.90;;;;;;5004313;28;20037;-72
2022/11/01 08:33:59;;;;;;;9.90;4.43;;;16.70;99.90;;;;;;5004573;28;20057;-73
2022/11/01 08:36:24;;;;;;;4.05;2.42;;;16.80;99.90;;;;;;5004058;28;20085;-73
2022/11/01 08:38:50;;;;;;;8.50;5.40;;;16.90;99.90;;;;;;5004245;28;20311;-73
2022/11/01 08:41:16;;;;;;;3.30;1.70;;;17.00;99.90;;;;;;5003468;28;20023;-76
2022/11/01 08:43:42;;;;;;;1.95;0.68;;;17.00;99.90;;;;;;5004615;28;20018;-75
2022/11/01 08:46:09;;;;;;;1.40;0.40;;;17.10;99.90;;;;;;5004198;28;20064;-71
2022/11/01 08:48:35;;;;;;;2.55;0.88;;;17.20;99.90;;;;;;5004570;28;20100;-72
2022/11/01 08:51:01;;;;;;;10.82;5.82;;;17.30;99.90;;;;;;5004122;28;20307;-75
2022/11/01 08:53:26;;;;;;;12.70;6.50;;;17.40;99.90;;;;;;5003674;28;20026;-75
2022/11/01 08:55:56;;;;;;;9.40;5.28;;;17.40;99.90;;;;;;5004214;28;20026;-72
2022/11/01 08:58:22;;;;;;;9.25;4.68;;;17.50;99.90;;;;;;5002324;28;20302;-74
2022/11/01 09:00:48;;;;;;;5.82;2.05;;;17.50;99.90;;;;;;5004154;28;20046;-73
2022/11/01 09:03:14;;;;;;;2.95;1.40;;;17.40;99.90;;;;;;5003017;28;20042;-74
2022/11/01 09:05:40;;;;;;;3.78;1.77;;;17.40;99.90;;;;;;5004323;28;20049;-73
2022/11/01 09:08:07;;;;;;;5.25;2.42;;;17.40;99.90;;;;;;5004414;28;20312;-75
2022/11/01 09:10:33;;;;;;;4.78;1.88;;;17.40;99.90;;;;;;5003585;28;20037;-73
2022/11/01 09:13:00;;;;;;;4.60;1.85;;;17.40;99.90;;;;;;5004008;28;20299;-74
2022/11/01 09:15:25;;;;;;;3.33;1.30;;;17.40;99.90;;;;;;5003326;28;20032;-75
2022/11/01 09:17:51;;;;;;;2.42;0.93;;;17.50;99.90;;;;;;5003883;28;20377;-73
2022/11/01 09:20:18;;;;;;;2.53;0.93;;;17.50;99.90;;;;;;4985942;28;20050;-72
2022/11/01 09:22:44;;;;;;;1.45;0.50;;;17.50;99.90;;;;;;5002321;28;20212;-76
2022/11/01 09:25:10;;;;;;;1.85;0.47;;;17.70;99.90;;;;;;5003389;28;20022;-71
2022/11/01 09:27:35;;;;;;;2.20;0.40;;;17.80;99.90;;;;;;5003274;28;20233;-73
2022/11/01 09:30:03;;;;;;;1.90;0.60;;;18.00;99.90;;;;;;5003696;28;20038;-73
2022/11/01 09:32:29;;;;;;;4.20;2.03;;;18.10;99.90;;;;;;5002999;28;20138;-74
2022/11/01 09:34:55;;;;;;;6.10;1.73;;;18.20;99.90;;;;;;5003549;28;20838;-71
2022/11/01 09:37:20;;;;;;;1.73;0.50;;;18.40;99.90;;;;;;4985833;28;20269;-73
2022/11/01 09:39:46;;;;;;;1.75;0.60;;;18.60;99.90;;;;;;5003028;28;20444;-72
2022/11/01 09:42:31;;;;;;;2.40;0.77;;;18.80;99.90;;;;;;5003327;28;20029;-71
2022/11/01 09:45:03;;;;;;;2.13;0.73;;;19.30;99.90;;;;;;5003012;28;20045;-72
2022/11/01 09:47:29;;;;;;;1.98;0.55;;;19.50;99.90;;;;;;4985140;28;20113;-71
2022/11/01 09:50:17;;;;;;;1.52;0.40;;;19.80;99.90;;;;;;5002839;28;20034;-74
2022/11/01 09:52:43;;;;;;;2.72;0.43;;;20.10;99.90;;;;;;5003161;28;20041;-70
2022/11/01 09:55:13;;;;;;;0.70;0.30;;;20.20;99.90;;;;;;5002886;28;20094;-69
2022/11/01 09:57:44;;;;;;;0.52;0.20;;;20.40;99.90;;;;;;4991828;28;20315;-74
2022/11/01 10:00:18;;;;;;;1.05;0.40;;;20.40;99.90;;;;;;5000729;28;20101;-73
2022/11/01 10:02:45;;;;;;;1.45;0.35;;;20.60;99.90;;;;;;5002393;28;20070;-74
2022/11/01 10:05:35;;;;;;;2.53;0.30;;;20.50;99.90;;;;;;5002174;28;20497;-75
2022/11/01 10:08:00;;;;;;;0.82;0.20;;;20.50;99.90;;;;;;5002140;28;20038;-70
2022/11/01 10:10:37;;;;;;;1.23;0.38;;;20.60;99.90;;;;;;5001781;28;20046;-74
2022/11/01 10:13:11;;;;;;;1.58;0.40;;;20.80;99.90;;;;;;5002079;28;20026;-71
2022/11/01 10:15:45;;;;;;;1.65;0.40;;;21.20;99.90;;;;;;5002335;28;20072;-73
2022/11/01 10:18:27;;;;;;;1.75;0.45;;;21.30;99.90;;;;;;5001744;28;20485;-71
2022/11/01 10:20:55;;;;;;;1.45;0.45;;;21.30;99.90;;;;;;5002185;28;20041;-69
2022/11/01 10:23:43;;;;;;;1.00;0.28;;;21.10;99.90;;;;;;5001527;28;20342;-71
2022/11/01 10:26:15;;;;;;;3.20;0.60;;;20.70;99.80;;;;;;5002212;28;20041;-70
2022/11/01 10:28:56;;;;;;;2.58;0.90;;;20.90;99.90;;;;;;5006380;28;20034;-71
2022/11/01 10:31:25;;;;;;;2.28;0.47;;;20.90;99.80;;;;;;5020566;28;20082;-70
2022/11/01 10:33:53;;;;;;;1.33;0.50;;;21.00;99.20;;;;;;5008067;28;20010;-70
2022/11/01 10:36:31;;;;;;;1.77;0.30;;;21.10;99.10;;;;;;5002742;28;20072;-70
2022/11/01 10:39:27;;;;;;;2.63;0.40;;;21.30;99.20;;;;;;5003183;28;20034;-70
2022/11/01 10:41:53;;;;;;;1.73;0.50;;;21.30;98.50;;;;;;4977880;28;20409;-71
2022/11/01 10:44:33;;;;;;;1.70;0.60;;;21.10;98.70;;;;;;4985016;28;20098;-70
2022/11/01 10:47:07;;;;;;;1.77;0.45;;;21.30;98.80;;;;;;5003166;28;20038;-70
2022/11/01 10:49:44;;;;;;;2.72;0.40;;;21.40;97.80;;;;;;5002719;28;20068;-70
2022/11/01 10:52:15;;;;;;;2.42;0.50;;;21.30;98.10;;;;;;5003169;28;20038;-69
2022/11/01 10:54:42;;;;;;;2.22;0.40;;;21.10;98.30;;;;;;5002674;28;20061;-70
2022/11/01 10:57:22;;;;;;;2.83;0.30;;;21.20;98.20;;;;;;5002970;28;20042;-71
2022/11/01 10:59:49;;;;;;;1.55;0.40;;;21.20;97.60;;;;;;5002565;28;20317;-70
2022/11/01 11:02:38;;;;;;;2.42;0.50;;;21.20;98.00;;;;;;5001851;28;20089;-71
2022/11/01 11:05:05;;;;;;;1.90;0.90;;;21.30;97.80;;;;;;5002712;28;20265;-71
2022/11/01 11:07:31;;;;;;;1.55;0.32;;;21.20;97.10;;;;;;5002137;28;20267;-70
2022/11/01 11:10:01;;;;;;;1.25;0.50;;;21.00;96.90;;;;;;5002683;28;20034;-70
2022/11/01 11:12:30;;;;;;;1.27;0.50;;;20.80;97.00;;;;;;5001750;28;20192;-69
2022/11/01 11:15:02;;;;;;;2.95;0.68;;;20.70;97.20;;;;;;5002615;28;20026;-70
2022/11/01 11:17:37;;;;;;;2.58;0.70;;;20.40;97.30;;;;;;5001995;28;20029;-70
2022/11/01 11:20:09;;;;;;;3.88;0.68;;;20.30;97.60;;;;;;5002653;28;20030;-71
2022/11/01 11:22:40;;;;;;;2.05;0.50;;;20.20;97.70;;;;;;4984853;28;20037;-71
2022/11/01 11:25:17;;;;;;;2.15;0.60;;;20.20;97.80;;;;;;4985367;28;20034;-71
2022/11/01 11:27:46;;;;;;;1.50;0.40;;;20.20;97.50;;;;;;5002354;28;20363;-71
2022/11/01 11:30:13;;;;;;;5.47;0.50;;;20.30;97.40;;;;;;5002673;28;20771;-70
2022/11/01 11:32:47;;;;;;;1.05;0.40;;;20.50;97.40;;;;;;5002483;28;20050;-69
2022/11/01 11:35:13;;;;;;;1.10;0.50;;;20.50;97.30;;;;;;5002622;28;20053;-70
2022/11/01 11:37:48;;;;;;;1.50;0.50;;;20.90;96.90;;;;;;5001557;28;20038;-71
2022/11/01 11:40:26;;;;;;;1.42;0.30;;;21.50;96.30;;;;;;4985020;28;20085;-70
2022/11/01 11:42:54;;;;;;;2.73;0.30;;;21.90;95.00;;;;;;5002367;28;20045;-70
2022/11/01 11:45:29;;;;;;;2.20;0.60;;;21.80;95.00;;;;;;5001427;28;20085;-69
2022/11/01 11:48:18;;;;;;;1.23;0.43;;;21.80;95.00;;;;;;5002277;28;20323;-71
2022/11/01 11:50:44;;;;;;;3.80;0.57;;;21.80;94.90;;;;;;4985056;28;20039;-69
2022/11/01 11:53:22;;;;;;;1.55;0.50;;;21.60;94.70;;;;;;4984917;28;20288;-70
2022/11/01 11:55:52;;;;;;;1.10;0.38;;;21.60;95.30;;;;;;5002253;28;20324;-70
2022/11/01 11:58:31;;;;;;;2.30;0.68;;;21.60;94.60;;;;;;5001618;28;20045;-70
2022/11/01 12:00:59;;;;;;;1.58;0.55;;;21.30;95.10;;;;;;4984979;28;20169;-71
2022/11/01 12:03:27;;;;;;;0.98;0.45;;;21.30;95.30;;;;;;5001912;28;20050;-70
2022/11/01 12:06:00;;;;;;;2.75;0.57;;;21.30;95.10;;;;;;5002658;28;20056;-70
2022/11/01 12:08:59;;;;;;;3.10;0.55;;;21.00;95.70;;;;;;5001810;28;20081;-70
2022/11/01 12:11:36;;;;;;;2.40;0.73;;;21.00;95.20;;;;;;4967849;28;20064;-70
2022/11/01 12:14:06;;;;;;;2.92;0.70;;;20.80;96.00;;;;;;5002067;28;20057;-70
2022/11/01 12:16:40;;;;;;;3.65;0.70;;;20.90;96.00;;;;;;4983882;28;20223;-70
2022/11/01 12:19:24;;;;;;;1.67;0.40;;;21.00;95.50;;;;;;5002421;28;20046;-69
2022/11/01 12:21:57;;;;;;;2.00;0.50;;;20.90;95.00;;;;;;5001841;28;20239;-70
2022/11/01 12:24:40;;;;;;;1.73;0.50;;;20.50;95.70;;;;;;5001523;28;20084;-70
2022/11/01 12:27:13;;;;;;;4.03;0.88;;;20.40;96.00;;;;;;5002239;28;20073;-70
2022/11/01 12:29:53;;;;;;;4.85;1.17;;;20.10;97.70;;;;;;5001646;28;20030;-70
2022/11/01 12:32:27;;;;;;;5.63;1.27;;;19.70;99.00;;;;;;5001454;28;20057;-72
2022/11/01 12:34:57;;;;;;;3.65;0.85;;;19.50;99.60;;;;;;4984878;28;20030;-71
2022/11/01 12:37:43;;;;;;;3.92;0.73;;;19.20;99.90;;;;;;5001465;28;20304;-71
2022/11/01 12:40:33;;;;;;;4.35;1.00;;;19.10;99.90;;;;;;5001248;28;20064;-71
2022/11/01 12:43:02;;;;;;;5.28;1.10;;;18.90;99.90;;;;;;5002116;28;20097;-71
2022/11/01 12:45:37;;;;;;;4.35;0.90;;;18.80;99.90;;;;;;5001552;28;20042;-72
2022/11/01 12:48:08;;;;;;;4.00;1.30;;;18.90;99.90;;;;;;5001961;28;20308;-72
2022/11/01 12:50:41;;;;;;;3.85;1.02;;;19.30;99.90;;;;;;5001427;28;20042;-70
2022/11/01 12:53:25;;;;;;;3.03;1.00;;;19.70;99.60;;;;;;5001992;28;20034;-70
2022/11/01 12:55:52;;;;;;;3.67;0.90;;;19.60;99.60;;;;;;5001936;28;20236;-71
2022/11/01 12:58:21;;;;;;;5.72;1.02;;;19.60;99.50;;;;;;5003438;28;20029;-71
2022/11/01 13:01:06;;;;;;;4.80;1.05;;;19.30;99.90;;;;;;4987834;28;20181;-72
2022/11/01 13:04:00;;;;;;;3.08;1.10;;;19.20;99.90;;;;;;5004457;28;20232;-72
2022/11/01 13:06:56;;;;;;;4.13;0.98;;;19.20;99.90;;;;;;5004869;28;20415;-71
2022/11/01 13:09:40;;;;;;;3.38;0.98;;;19.10;99.90;;;;;;5004509;28;20042;-72
2022/11/01 13:12:24;;;;;;;3.80;0.80;;;19.10;99.90;;;;;;5005032;28;20026;-71
2022/11/01 13:15:14;;;;;;;2.75;0.90;;;19.20;99.90;;;;;;5005091;28;20043;-72
2022/11/01 13:17:48;;;;;;;3.05;1.00;;;19.30;99.90;;;;;;5004212;28;20278;-71
2022/11/01 13:20:22;;;;;;;3.72;1.00;;;19.30;99.90;;;;;;5004978;28;20098;-72
2022/11/01 13:23:30;;;;;;;3.38;0.80;;;19.30;99.90;;;;;;5004955;28;20034;-71
2022/11/01 13:26:19;;;;;;;;;;;19.50;99.60;;;;;;4964733;28;20340;-71
2022/11/01 13:29:03;;;;;;;3.60;0.95;;;19.70;99.60;;;;;;4963234;29;19911;-72
2022/11/01 13:31:49;;;;;;;5.18;1.13;;;19.50;99.70;;;;;;4963511;29;20074;-70
2022/11/01 13:34:31;;;;;;;4.50;0.90;;;19.40;99.60;;;;;;4963661;28;20042;-71
2022/11/01 13:37:17;;;;;;;4.57;0.93;;;19.50;99.70;;;;;;4963798;28;20202;-71
2022/11/01 13:40:14;;;;;;;4.63;1.00;;;19.70;99.30;;;;;;4962876;28;20048;-71
2022/11/01 13:42:46;;;;;;;8.93;1.33;;;19.70;99.20;;;;;;4962890;29;20047;-71
2022/11/01 13:45:11;;;;;;;4.70;1.00;;;19.70;99.20;;;;;;4963497;29;20055;-71
2022/11/01 13:47:59;;;;;;;3.97;1.20;;;20.00;98.90;;;;;;4962498;28;20147;-71
2022/11/01 13:50:45;;;;;;;5.22;1.10;;;20.60;98.10;;;;;;4962759;28;20058;-71
2022/11/01 13:53:27;;;;;;;4.05;1.17;;;21.50;96.90;;;;;;4963332;28;20476;-71
2022/11/01 13:56:18;;;;;;;4.55;1.30;;;21.80;95.80;;;;;;4969728;28;20315;-71
2022/11/01 13:58:44;;;;;;;4.78;1.00;;;21.60;96.00;;;;;;5003353;28;20104;-69
2022/11/01 14:01:30;;;;;;;4.88;0.82;;;21.70;95.70;;;;;;5003726;28;20022;-69
2022/11/01 14:04:17;;;;;;;7.13;1.20;;;21.60;95.90;;;;;;4986681;28;20057;-70
2022/11/01 14:07:04;;;;;;;8.47;1.50;;;21.60;95.40;;;;;;5003617;28;20500;-70
2022/11/01 14:09:50;;;;;;;5.18;1.23;;;21.60;95.50;;;;;;4985518;28;20065;-70
2022/11/01 14:12:33;;;;;;;3.13;0.75;;;21.90;95.00;;;;;;5003838;28;20301;-70
2022/11/01 14:15:14;;;;;;;4.18;0.80;;;21.70;94.90;;;;;;5003860;28;20030;-70
2022/11/01 14:17:52;;;;;;;4.07;0.90;;;21.60;95.30;;;;;;5003253;28;20038;-70
2022/11/01 14:20:19;;;;;;;5.53;1.52;;;21.50;95.30;;;;;;5003757;28;20060;-70
2022/11/01 14:22:44;;;;;;;4.30;1.00;;;21.80;94.90;;;;;;5002795;28;20042;-70
2022/11/01 14:25:13;;;;;;;5.53;1.48;;;22.20;94.50;;;;;;5003639;28;20037;-70
2022/11/01 14:27:42;;;;;;;4.95;1.40;;;22.70;93.70;;;;;;5003209;28;20033;-71
2022/11/01 14:30:24;;;;;;;7.35;1.88;;;22.80;93.30;;;;;;4985959;28;20256;-70
2022/11/01 14:32:59;;;;;;;5.30;1.98;;;22.80;93.20;;;;;;5003127;28;20097;-70
2022/11/01 14:35:34;;;;;;;3.67;1.20;;;22.50;93.30;;;;;;5002889;28;20018;-71
2022/11/01 14:38:04;;;;;;;4.32;1.27;;;22.70;93.40;;;;;;5003151;28;20042;-71
2022/11/01 14:41:07;;;;;;;4.88;1.70;;;22.70;92.90;;;;;;5002767;28;20116;-69
2022/11/01 14:43:53;;;;;;;4.72;1.35;;;22.10;93.50;;;;;;4998668;28;20049;-69
2022/11/01 14:46:28;;;;;;;4.05;1.15;;;21.60;94.40;;;;;;5003370;28;20022;-71
2022/11/01 14:49:26;;;;;;;5.32;1.17;;;21.30;94.60;;;;;;5003062;28;20049;-69
2022/11/01 14:51:58;;;;;;;4.68;1.10;;;21.30;94.60;;;;;;5003121;28;20216;-71
2022/11/01 14:54:40;;;;;;;6.50;1.20;;;20.70;95.30;;;;;;5002869;28;20212;-69
2022/11/01 14:57:29;;;;;;;4.07;0.95;;;20.30;95.80;;;;;;5002900;28;20092;-70
2022/11/01 14:59:56;;;;;;;7.13;1.20;;;19.90;96.60;;;;;;5002899;28;20064;-70
2022/11/01 15:02:24;;;;;;;5.00;1.52;;;19.60;97.10;;;;;;5002513;28;20038;-71
2022/11/01 15:04:55;;;;;;;5.97;2.72;;;19.30;97.80;;;;;;5002109;28;20033;-71
2022/11/01 15:07:27;;;;;;;8.20;4.82;;;19.10;98.10;;;;;;4985738;28;20035;-72
2022/11/01 15:10:11;;;;;;;3.88;1.02;;;19.00;98.60;;;;;;5002994;28;20354;-72
2022/11/01 15:12:46;;;;;;;5.78;2.10;;;18.60;98.70;;;;;;5002356;28;20034;-71
2022/11/01 15:15:15;;;;;;;6.63;1.67;;;18.40;99.40;;;;;;5002888;28;20033;-70
2022/11/01 15:17:41;;;;;;;5.65;1.95;;;18.20;99.90;;;;;;5001865;28;20030;-70
2022/11/01 15:20:14;;;;;;;6.57;2.90;;;18.00;99.90;;;;;;5001857;28;20034;-71
2022/11/01 15:22:43;;;;;;;8.48;3.40;;;18.00;99.90;;;;;;5002064;28;20172;-71
2022/11/01 15:25:19;;;;;;;12.45;7.18;;;17.90;99.90;;;;;;5002502;28;20030;-71
2022/11/01 15:27:46;;;;;;;4.82;2.50;;;17.70;99.90;;;;;;5002259;28;20032;-71
2022/11/01 15:30:30;;;;;;;4.22;1.30;;;17.70;99.90;;;;;;5002590;28;20128;-71
2022/11/01 15:33:30;;;;;;;7.07;1.45;;;17.50;99.90;;;;;;4984872;28;20030;-70
2022/11/01 15:36:04;;;;;;;5.82;1.35;;;17.50;99.90;;;;;;5002574;28;20038;-70
2022/11/01 15:39:12;;;;;;;3.45;1.25;;;17.40;99.90;;;;;;5002013;28;20270;-71
2022/11/01 15:41:38;;;;;;;5.47;1.75;;;17.20;99.90;;;;;;4922923;29;20036;-71
2022/11/01 15:44:19;;;;;;;6.72;1.67;;;17.10;99.90;;;;;;4923721;29;20091;-71
2022/11/01 15:46:48;;;;;;;7.40;3.22;;;17.10;99.90;;;;;;4923019;29;20068;-70
2022/11/01 15:49:31;;;;;;;6.65;2.30;;;17.20;99.90;;;;;;4907885;29;20028;-72
2022/11/01 15:52:17;;;;;;;6.93;2.60;;;17.10;99.90;;;;;;4923645;29;20323;-71
2022/11/01 15:55:06;;;;;;;4.90;1.95;;;17.00;99.90;;;;;;4923300;29;20059;-71
2022/11/01 15:57:57;;;;;;;6.30;1.73;;;16.80;99.90;;;;;;4923227;29;20036;-72
2022/11/01 16:00:29;;;;;;;6.57;2.10;;;16.60;99.90;;;;;;4923405;29;20055;-72
2022/11/01 16:03:09;;;;;;;6.43;2.60;;;16.40;99.90;;;;;;4922522;29;20088;-71
2022/11/01 16:06:09;;;;;;;7.85;1.98;;;16.10;99.90;;;;;;4923288;29;20115;-72
2022/11/01 16:08:41;;;;;;;5.93;2.00;;;16.00;99.90;;;;;;4922889;29;20036;-70
2022/11/01 16:11:11;;;;;;;6.40;2.53;;;15.80;99.90;;;;;;4923564;29;20024;-70
2022/11/01 16:13:49;;;;;;;6.63;2.00;;;15.60;99.90;;;;;;5000470;28;20019;-71
2022/11/01 16:16:17;;;;;;;5.70;2.30;;;15.40;99.90;;;;;;5001831;28;20030;-71
2022/11/01 16:19:09;;;;;;;10.15;3.13;;;15.40;99.90;;;;;;5001355;28;20220;-72
2022/11/01 16:21:46;;;;;;;6.10;2.60;;;15.20;99.90;;;;;;5001124;28;20124;-71
2022/11/01 16:24:26;;;;;;;9.32;4.10;;;15.10;99.90;;;;;;5001942;28;20045;-72
2022/11/01 16:27:04;;;;;;;5.82;2.10;;;14.90;99.90;;;;;;5001342;28;20279;-71
2022/11/01 16:29:51;;;;;;;5.43;1.90;;;14.80;99.90;;;;;;5001625;28;20122;-70
2022/11/01 16:32:34;;;;;;;5.55;2.00;;;14.60;99.90;;;;;;5003644;28;20034;-71
2022/11/01 16:35:32;;;;;;;6.63;2.60;;;14.50;99.90;;;;;;4988015;28;20260;-71
2022/11/01 16:37:57;;;;;;;7.38;2.40;;;14.40;99.90;;;;;;5005324;28;20105;-71
2022/11/01 16:40:31;;;;;;;6.18;2.45;;;14.40;99.90;;;;;;5005548;28;20096;-71
2022/11/01 16:42:58;;;;;;;19.85;12.05;;;14.40;99.90;;;;;;5004686;28;20057;-71
2022/11/01 16:45:24;;;;;;;18.45;10.23;;;14.30;99.90;;;;;;5005414;28;20036;-71
2022/11/01 16:47:53;;;;;;;9.70;5.15;;;14.30;99.90;;;;;;5004640;28;20268;-71
2022/11/01 16:50:21;;;;;;;27.33;14.10;;;14.30;99.90;;;;;;5005235;28;20030;-71
2022/11/01 16:52:47;;;;;;;27.35;16.48;;;14.20;99.90;;;;;;5004585;28;20030;-71
2022/11/01 16:55:13;;;;;;;22.98;13.90;;;14.20;99.90;;;;;;5005156;28;20093;-71
2022/11/01 16:57:46;;;;;;;197.07;69.75;;;14.10;99.90;;;;;;5004438;28;20042;-70
2022/11/01 17:00:13;;;;;;;78.63;27.15;;;14.10;99.90;;;;;;5004965;28;20027;-70
2022/11/01 17:02:40;;;;;;;112.70;43.78;;;14.00;99.90;;;;;;5003918;28;20344;-70
2022/11/01 17:05:27;;;;;;;50.72;19.08;;;14.00;99.90;;;;;;5005413;28;20034;-70
2022/11/01 17:07:54;;;;;;;18.02;6.90;;;13.90;99.90;;;;;;5004814;28;20038;-70
2022/11/01 17:10:24;;;;;;;17.67;7.63;;;13.90;99.90;;;;;;5005157;28;20034;-70
2022/11/01 17:12:50;;;;;;;22.70;9.98;;;13.80;99.90;;;;;;5004349;28;20039;-70
2022/11/01 17:15:18;;;;;;;12.13;4.68;;;13.80;99.90;;;;;;5004869;28;20034;-70
2022/11/01 17:17:50;;;;;;;12.73;4.88;;;13.80;99.90;;;;;;5004662;28;20030;-70
2022/11/01 17:20:25;;;;;;;10.50;4.30;;;13.70;99.90;;;;;;5004719;28;20094;-70
2022/11/01 17:22:57;;;;;;;11.63;4.70;;;13.60;99.90;;;;;;5004447;28;20316;-71
2022/11/01 17:25:29;;;;;;;13.00;5.65;;;13.60;99.90;;;;;;5004767;28;20038;-70
2022/11/01 17:27:55;;;;;;;11.35;4.40;;;13.60;99.90;;;;;;5003928;28;20354;-70
2022/11/01 17:30:26;;;;;;;8.80;4.20;;;13.50;99.90;;;;;;5004504;28;20054;-70
2022/11/01 17:32:52;;;;;;;10.35;4.28;;;13.40;99.90;;;;;;5003685;28;20029;-70
2022/11/01 17:35:18;;;;;;;8.05;3.97;;;13.40;99.90;;;;;;5004597;28;20069;-72
2022/11/01 17:37:43;;;;;;;10.25;5.13;;;13.40;99.90;;;;;;5003928;28;20026;-70
2022/11/01 17:40:25;;;;;;;8.15;3.85;;;13.40;99.90;;;;;;5004437;28;20030;-70
2022/11/01 17:42:51;;;;;;;9.75;4.45;;;13.40;99.90;;;;;;4969657;28;20052;-70
2022/11/01 17:45:17;;;;;;;9.57;4.25;;;13.50;99.90;;;;;;4986474;28;20308;-70
2022/11/01 17:47:43;;;;;;;9.23;3.28;;;13.50;99.90;;;;;;5003675;28;20045;-70
2022/11/01 17:50:11;;;;;;;7.65;3.17;;;13.50;99.90;;;;;;5004076;28;20097;-70
2022/11/01 17:52:37;;;;;;;6.05;2.83;;;13.40;99.90;;;;;;5003705;28;20269;-70
2022/11/01 17:55:07;;;;;;;8.68;3.67;;;13.50;99.90;;;;;;5004234;28;20046;-70
2022/11/01 17:57:33;;;;;;;11.80;3.47;;;13.50;99.90;;;;;;5004113;28;20034;-69
2022/11/01 18:00:02;;;;;;;11.43;4.10;;;13.50;99.90;;;;;;5003285;28;20046;-70
2022/11/01 18:02:44;;;;;;;8.65;3.95;;;13.40;99.90;;;;;;5003255;28;20070;-70
2022/11/01 18:05:12;;;;;;;9.20;4.13;;;13.40;99.90;;;;;;5003919;28;20331;-70
2022/11/01 18:07:47;;;;;;;7.97;3.28;;;13.40;99.90;;;;;;5003223;28;20128;-70
2022/11/01 18:10:34;;;;;;;9.45;3.63;;;13.20;99.90;;;;;;5003828;28;20049;-70
2022/11/01 18:13:31;;;;;;;45.50;23.05;;;13.10;99.90;;;;;;5003326;28;20189;-71
2022/11/01 18:16:11;;;;;;;49.90;25.02;;;12.90;99.90;;;;;;5003173;28;20165;-70
2022/11/01 18:18:53;;;;;;;57.70;32.42;;;12.70;99.90;;;;;;5003719;28;20034;-70
2022/11/01 18:21:33;;;;;;;45.03;24.40;;;12.60;99.90;;;;;;5004005;28;20236;-70
2022/11/01 18:24:11;;;;;;;17.23;8.90;;;12.50;99.90;;;;;;5003221;28;20044;-70
2022/11/01 18:26:36;;;;;;;37.45;14.70;;;12.40;99.90;;;;;;5003466;28;20022;-70
2022/11/01 18:29:22;;;;;;;47.63;17.27;;;12.30;99.90;;;;;;5002716;28;20391;-70
2022/11/01 18:32:15;;;;;;;165.85;45.38;;;12.10;99.90;;;;;;4985427;28;20073;-70
2022/11/01 18:35:04;;;;;;;62.22;22.73;;;12.00;99.90;;;;;;4984856;28;20038;-70
2022/11/01 18:38:04;;;;;;;105.17;33.37;;;12.00;99.90;;;;;;5003309;28;20046;-70
2022/11/01 18:40:59;;;;;;;66.18;23.20;;;11.90;99.90;;;;;;5003525;28;20093;-70
2022/11/01 18:43:33;;;;;;;53.03;20.10;;;11.80;99.90;;;;;;5004137;28;20042;-71
2022/11/01 18:46:14;;;;;;;37.47;14.68;;;11.80;99.90;;;;;;5003984;28;20050;-71
2022/11/01 18:48:40;;;;;;;42.63;20.77;;;11.70;99.90;;;;;;5003555;28;20097;-71
2022/11/01 18:51:30;;;;;;;50.42;24.73;;;11.60;99.90;;;;;;4985725;28;20269;-71
2022/11/01 18:54:08;;;;;;;36.20;19.63;;;11.60;99.90;;;;;;5002549;28;20300;-71
2022/11/01 18:56:46;;;;;;;23.63;12.57;;;11.60;99.90;;;;;;5003216;28;20030;-71
2022/11/01 18:59:30;;;;;;;21.13;10.73;;;11.50;99.90;;;;;;5003097;28;20022;-71
2022/11/01 19:02:17;;;;;;;27.52;14.35;;;11.50;99.90;;;;;;5002021;28;20046;-71
2022/11/01 19:04:45;;;;;;;22.80;10.40;;;11.40;99.90;;;;;;5002721;28;20280;-71
2022/11/01 19:07:15;;;;;;;18.77;10.07;;;11.30;99.90;;;;;;5003096;28;20089;-72
2022/11/01 19:10:06;;;;;;;19.40;9.10;;;11.30;99.90;;;;;;4985525;28;20042;-71
2022/11/01 19:12:41;;;;;;;14.07;7.57;;;11.20;99.90;;;;;;5002824;28;20041;-72
2022/11/01 19:15:23;;;;;;;17.73;6.80;;;11.10;99.90;;;;;;5003070;28;20030;-71